Airfield :
LOGIN :

Register | Disclaimer

   EN    FR    IT 

 










Legend :    VFR   Marginal VFR   IFR   Intensive IFR   Very Intensive IFR
Visi :
Ceiling :
>= 8 km
>= 3000ft
5 to 8 km
1000 to 3000 ft
1500m to 5 km
500 to 1000 ft
800 to 1500m
200 to 500 ft
< 800m
< 200 ft
Symbols :   Thunderstorms  Fog  Heavy snow  Heavy precipitations  Wind > 20 kt
SIGMETs :     Misc.  Thunderstorms  Icing  Turbulence  Mountain Waves  Volcanic Ashes






- Airport Elevation : -11 ft
- IATA code : AMS


EHAM - Amsterdam Schiphol

CURRENT METAR :
  • 281825Z 32009KT 290V350 9999 FEW025 SCT045 11/07 Q1021 NOSIG

EXPIRED METARs :
  • 281755Z 36007KT 300V030 9999 FEW022 SCT030 10/07 Q1021 BECMG 32011KT
  • 281725Z 32013KT 290V020 9999 -SHRA FEW025TCU SCT030 12/06 Q1021 TEMPO 34016G26KT 7000
  • 281655Z 31015KT 9999 FEW030 13/05 Q1021 TEMPO 34017G27KT 7000 -SHRA SCT025TCU
  • 281625Z 34014KT 290V020 9999 FEW028 14/06 Q1021 NOSIG
  • 281555Z 31015KT 270V010 9999 FEW030 13/06 Q1021 NOSIG

TAF TAF EHAM
Valid from the 28 at 18:00 until the 30 at 00:00 UTC


281716Z 2818/2924 33014KT 9999 SCT035
BECMG 2819/2821 33009KT
PROB40
TEMPO 2822/2911 7000 -SHRA SCT020TCU BKN025
BECMG 2908/2911 34014KT
BECMG 2917/2920 33006KT



MET'MAP, your aeronautical weather chart ! - Copyright ORBIFLY December 2007 - Disclaimer

ORBIFLY MET'MAP TEAM :

Programming & Development : Alexandra Zaïnal
Original concept : Baudouin d'Aumeries
Technical & hardware support : Manuel Goepfert
Assistance : Marc-Olivier Méhu

Contact : metmap@orbifly.com




SOURCES & CREDITS :

   NOAA